Time;durP1;ratioP1;P1;durP2;ratioP2;P2;SDS_P1;SDS_P2;PMS_P1;PMS_P2;Temp;Humidity;BMP_temperature;BMP_pressure;BME280_temperature;BME280_humidity;BME280_pressure;Samples;Min_cycle;Max_cycle;Signal;HPM_P1;HPM_P2
2022/04/15 00:02:18;;;;;;;4.90;2.38;;;;;;;11.45;100.00;96394.44;5011923;28;24436;-75
2022/04/15 00:04:44;;;;;;;4.90;2.30;;;;;;;11.30;100.00;96404.75;5014610;28;25035;-75
2022/04/15 00:07:11;;;;;;;4.70;2.45;;;;;;;11.30;100.00;96394.38;5012062;28;25293;-75
2022/04/15 00:09:38;;;;;;;5.85;2.50;;;;;;;11.23;100.00;96395.63;5006903;28;24467;-75
2022/04/15 00:12:10;;;;;;;3.28;2.40;;;;;;;11.17;100.00;96395.16;5005920;28;24938;-76
2022/04/15 00:14:37;;;;;;;3.78;2.63;;;;;;;11.45;100.00;96397.03;5014010;28;24439;-75
2022/04/15 00:17:04;;;;;;;3.95;2.28;;;;;;;11.24;100.00;96393.91;5014235;28;24483;-75
2022/04/15 00:19:30;;;;;;;4.40;2.55;;;;;;;10.95;100.00;96388.53;5013969;28;24436;-76
2022/04/15 00:21:57;;;;;;;3.42;2.45;;;;;;;10.89;100.00;96397.47;5013808;28;24798;-75
2022/04/15 00:24:23;;;;;;;4.40;2.50;;;;;;;10.90;100.00;96396.56;5014450;28;24436;-76
2022/04/15 00:26:50;;;;;;;4.63;3.20;;;;;;;10.89;100.00;96394.03;5013451;28;24472;-75
2022/04/15 00:29:18;;;;;;;3.63;2.78;;;;;;;10.83;100.00;96395.22;5013065;28;24441;-75
2022/04/15 00:31:44;;;;;;;7.27;3.53;;;;;;;10.86;100.00;96397.66;5012695;28;24534;-75
2022/04/15 00:34:10;;;;;;;4.38;3.08;;;;;;;10.88;100.00;96393.22;5012716;28;24436;-75
2022/04/15 00:36:37;;;;;;;2.92;2.10;;;;;;;10.83;100.00;96389.22;5012538;28;24460;-75
2022/04/15 00:39:03;;;;;;;3.13;2.13;;;;;;;10.86;100.00;96397.66;5012388;28;24850;-76
2022/04/15 00:41:30;;;;;;;2.90;1.88;;;;;;;10.68;100.00;96397.78;5012523;28;24451;-76
2022/04/15 00:43:58;;;;;;;3.57;2.60;;;;;;;10.55;100.00;96389.84;5012429;28;24444;-76
2022/04/15 00:46:26;;;;;;;5.60;3.50;;;;;;;10.59;100.00;96393.94;5011995;28;24464;-75
2022/04/15 00:48:52;;;;;;;5.45;3.42;;;;;;;10.58;100.00;96393.09;5012140;28;24834;-75
2022/04/15 00:51:19;;;;;;;5.10;2.47;;;;;;;10.57;100.00;96393.19;5012175;28;24981;-76
2022/04/15 00:53:46;;;;;;;3.78;2.08;;;;;;;10.59;100.00;96392.19;5012056;28;24428;-75
2022/04/15 00:56:14;;;;;;;3.55;2.17;;;;;;;10.49;100.00;96397.91;5011654;28;24440;-75
2022/04/15 00:58:41;;;;;;;5.57;3.05;;;;;;;10.29;100.00;96386.84;5004345;28;24435;-76
2022/04/15 01:01:08;;;;;;;4.60;2.92;;;;;;;10.29;100.00;96391.19;5012023;28;24463;-75
2022/04/15 01:03:37;;;;;;;5.80;3.30;;;;;;;10.32;100.00;96397.06;5012042;28;24437;-76
2022/04/15 01:06:07;;;;;;;3.85;2.97;;;;;;;10.33;100.00;96387.53;5011351;28;24457;-75
2022/04/15 01:08:39;;;;;;;3.80;2.92;;;;;;;10.36;100.00;96395.97;5011913;28;24870;-75
2022/04/15 01:11:08;;;;;;;9.55;3.38;;;;;;;10.44;100.00;96394.75;5011895;28;24432;-75
2022/04/15 01:13:35;;;;;;;6.30;3.47;;;;;;;10.41;100.00;96396.56;5011987;28;24517;-75
2022/04/15 01:16:02;;;;;;;5.67;3.70;;;;;;;10.44;100.00;96398.16;5011495;28;24440;-75
2022/04/15 01:18:29;;;;;;;6.23;3.80;;;;;;;10.53;100.00;96391.66;5012037;28;24431;-75
2022/04/15 01:20:56;;;;;;;6.30;4.10;;;;;;;10.49;100.00;96395.31;5011516;28;24603;-75
2022/04/15 01:23:24;;;;;;;4.87;3.70;;;;;;;10.40;100.00;96397.50;5011751;28;24439;-76
2022/04/15 01:25:51;;;;;;;4.30;3.50;;;;;;;10.36;100.00;96393.38;5011327;28;24456;-75
2022/04/15 01:28:19;;;;;;;4.65;3.60;;;;;;;10.36;100.00;96397.72;5011241;28;24467;-76
2022/04/15 01:30:46;;;;;;;6.57;3.50;;;;;;;10.36;100.00;96401.16;5011307;28;25043;-76
2022/04/15 01:33:13;;;;;;;6.90;4.15;;;;;;;10.30;100.00;96409.22;5011516;28;24795;-75
2022/04/15 01:35:39;;;;;;;6.65;4.45;;;;;;;10.30;100.00;96408.41;5011337;28;24447;-76
2022/04/15 01:38:10;;;;;;;8.95;4.45;;;;;;;10.31;100.00;96412.69;5010240;28;24448;-75
2022/04/15 01:40:39;;;;;;;9.68;4.40;;;;;;;10.35;100.00;96409.84;5011154;28;24541;-76
2022/04/15 01:43:06;;;;;;;6.47;4.63;;;;;;;10.39;100.00;96415.72;5011310;28;24985;-76
2022/04/15 01:45:33;;;;;;;7.03;4.00;;;;;;;10.31;100.00;96407.50;5010993;28;24455;-75
2022/04/15 01:47:59;;;;;;;9.55;3.78;;;;;;;10.31;100.00;96407.50;5011124;28;24440;-75
2022/04/15 01:50:28;;;;;;;9.27;3.92;;;;;;;10.26;100.00;96409.47;5011231;28;24436;-76
2022/04/15 01:52:54;;;;;;;5.55;3.58;;;;;;;10.17;100.00;96411.59;5011344;28;24726;-75
2022/04/15 01:55:20;;;;;;;7.33;3.90;;;;;;;10.17;100.00;96409.00;5011296;28;24436;-76
2022/04/15 01:57:48;;;;;;;4.15;3.65;;;;;;;10.21;100.00;96411.44;5010892;28;24440;-76
2022/04/15 02:00:15;;;;;;;6.03;3.80;;;;;;;10.20;100.00;96415.78;5010863;28;24436;-75
2022/04/15 02:02:42;;;;;;;5.90;4.43;;;;;;;10.20;100.00;96413.19;5010924;28;24437;-75
2022/04/15 02:05:08;;;;;;;6.63;4.60;;;;;;;10.05;100.00;96412.22;5011044;28;24461;-76
2022/04/15 02:07:35;;;;;;;7.22;4.35;;;;;;;10.00;100.00;96410.75;5010784;28;24440;-75
2022/04/15 02:10:01;;;;;;;7.38;3.85;;;;;;;10.07;100.00;96414.72;5010897;28;24464;-75
2022/04/15 02:12:28;;;;;;;6.32;3.60;;;;;;;10.12;100.00;96415.31;5010457;28;24990;-75
2022/04/15 02:14:56;;;;;;;7.37;4.17;;;;;;;9.97;100.00;96410.91;5010721;28;24525;-76
2022/04/15 02:17:22;;;;;;;6.72;3.95;;;;;;;9.93;100.00;96413.66;5010516;28;25001;-75
2022/04/15 02:19:50;;;;;;;7.95;3.80;;;;;;;9.96;100.00;96419.59;5010779;28;24471;-75
2022/04/15 02:22:17;;;;;;;3.83;3.15;;;;;;;10.00;100.00;96418.53;5010895;28;24989;-75
2022/04/15 02:24:43;;;;;;;4.40;3.30;;;;;;;9.88;100.00;96410.47;5010607;28;24440;-76
2022/04/15 02:27:10;;;;;;;4.32;2.72;;;;;;;9.81;100.00;96421.19;5010315;28;24515;-75
2022/04/15 02:29:36;;;;;;;5.65;2.70;;;;;;;9.75;100.00;96419.72;5010310;28;24461;-75
2022/04/15 02:32:05;;;;;;;4.82;3.10;;;;;;;9.75;100.00;96429.25;5010680;28;24798;-75
2022/04/15 02:34:31;;;;;;;7.13;3.20;;;;;;;9.68;100.00;96428.72;5010464;28;24985;-75
2022/04/15 02:36:58;;;;;;;4.85;3.40;;;;;;;9.57;100.00;96431.00;5010759;28;24490;-76
2022/04/15 02:39:24;;;;;;;7.20;3.23;;;;;;;9.38;100.00;96426.72;5010782;28;24463;-75
2022/04/15 02:41:52;;;;;;;5.00;3.60;;;;;;;9.36;100.00;96422.50;5009905;28;20775;-75
2022/04/15 02:44:19;;;;;;;10.85;3.58;;;;;;;9.36;100.00;96420.75;5010497;28;24444;-75
2022/04/15 02:46:45;;;;;;;4.88;3.70;;;;;;;9.36;100.00;96423.34;5010159;28;24491;-76
2022/04/15 02:49:13;;;;;;;10.50;3.88;;;;;;;9.52;100.00;96422.59;5009892;28;24993;-75
2022/04/15 02:51:40;;;;;;;7.82;3.58;;;;;;;9.39;100.00;96423.19;5009961;28;24495;-75
2022/04/15 02:54:06;;;;;;;4.72;4.28;;;;;;;9.29;100.00;96416.78;5010482;28;24495;-75
2022/04/15 02:56:33;;;;;;;5.68;4.00;;;;;;;9.27;100.00;96422.94;5010637;28;24796;-75
2022/04/15 02:58:59;;;;;;;5.82;3.95;;;;;;;9.28;100.00;96422.88;5010224;28;24977;-75
2022/04/15 03:01:26;;;;;;;5.68;3.58;;;;;;;9.32;100.00;96427.00;5009974;28;24443;-75
2022/04/15 03:03:52;;;;;;;5.55;4.07;;;;;;;9.36;100.00;96423.34;5010158;28;25089;-75
2022/04/15 03:06:20;;;;;;;6.47;3.97;;;;;;;9.41;100.00;96423.94;5010023;28;24455;-75
2022/04/15 03:08:46;;;;;;;7.47;3.70;;;;;;;9.46;100.00;96418.59;5010312;28;24444;-76
2022/04/15 03:11:13;;;;;;;4.40;3.50;;;;;;;9.41;100.00;96423.13;5009463;28;24483;-75
2022/04/15 03:13:39;;;;;;;4.18;3.28;;;;;;;9.35;100.00;96419.09;5010351;28;24440;-75
2022/04/15 03:16:06;;;;;;;4.60;3.03;;;;;;;9.27;100.00;96416.03;5009680;28;24992;-75
2022/04/15 03:18:32;;;;;;;7.03;3.60;;;;;;;9.38;100.00;96420.69;5010099;28;24443;-75
2022/04/15 03:20:59;;;;;;;5.70;3.63;;;;;;;9.50;100.00;96416.69;5010048;28;24452;-75
2022/04/15 03:23:27;;;;;;;5.93;4.00;;;;;;;9.50;100.00;96419.28;5009498;28;24432;-75
2022/04/15 03:25:53;;;;;;;6.82;3.90;;;;;;;9.20;100.00;96417.25;5009485;28;24452;-75
2022/04/15 03:28:20;;;;;;;5.53;3.75;;;;;;;9.12;100.00;96414.16;5009794;28;25005;-75
2022/04/15 03:30:46;;;;;;;4.82;3.65;;;;;;;9.13;100.00;96416.69;5009975;28;24536;-76
2022/04/15 03:33:13;;;;;;;6.80;4.57;;;;;;;9.20;100.00;96417.25;5009896;28;24440;-76
2022/04/15 03:35:39;;;;;;;5.68;4.43;;;;;;;9.14;100.00;96420.09;5009996;28;24437;-75
2022/04/15 03:38:06;;;;;;;7.30;4.77;;;;;;;9.10;100.00;96416.81;5009694;28;24506;-75
2022/04/15 03:40:34;;;;;;;5.63;4.20;;;;;;;9.08;100.00;96415.19;5009956;28;24486;-76
2022/04/15 03:43:00;;;;;;;6.28;4.50;;;;;;;9.14;100.00;96412.34;5009979;28;24436;-75
2022/04/15 03:45:27;;;;;;;4.30;3.83;;;;;;;9.20;100.00;96419.81;5009767;28;24437;-76
2022/04/15 03:47:54;;;;;;;5.28;3.95;;;;;;;9.17;100.00;96407.88;5009648;28;25029;-76
2022/04/15 03:50:21;;;;;;;5.13;3.90;;;;;;;9.06;100.00;96417.03;5009919;28;24565;-75
2022/04/15 03:52:48;;;;;;;5.97;3.78;;;;;;;8.93;100.00;96427.09;5009553;28;24854;-75
2022/04/15 03:55:16;;;;;;;4.83;4.10;;;;;;;8.85;100.00;96421.44;5009886;28;24452;-75
2022/04/15 03:57:45;;;;;;;4.82;4.32;;;;;;;8.82;100.00;96424.16;5009852;28;20843;-75
2022/04/15 04:00:13;;;;;;;4.32;3.92;;;;;;;8.80;100.00;96425.97;5010101;28;24447;-76
2022/04/15 04:02:43;;;;;;;4.65;3.40;;;;;;;8.83;100.00;96428.44;5012742;28;24989;-75
2022/04/15 04:05:10;;;;;;;5.10;4.00;;;;;;;8.86;100.00;96428.25;5012948;28;24524;-76
2022/04/15 04:07:37;;;;;;;5.35;4.30;;;;;;;8.80;100.00;96431.97;5012732;28;24822;-75
2022/04/15 04:10:04;;;;;;;5.00;4.07;;;;;;;8.73;100.00;96425.41;5013318;28;24818;-75
2022/04/15 04:12:31;;;;;;;4.85;4.03;;;;;;;8.71;100.00;96427.22;5012854;28;20782;-75
2022/04/15 04:14:59;;;;;;;6.18;4.53;;;;;;;8.83;100.00;96429.25;5013167;28;24444;-75
2022/04/15 04:17:25;;;;;;;5.40;4.47;;;;;;;8.70;100.00;96428.13;5012696;28;24845;-75
2022/04/15 04:19:52;;;;;;;5.75;4.40;;;;;;;8.63;100.00;96431.88;5012842;28;24440;-75
2022/04/15 04:22:18;;;;;;;5.03;4.03;;;;;;;8.61;100.00;96439.72;5012874;28;24439;-75
2022/04/15 04:24:45;;;;;;;3.93;3.40;;;;;;;8.60;100.00;96422.56;5012884;28;20770;-75
2022/04/15 04:27:11;;;;;;;6.43;4.85;;;;;;;8.64;100.00;96431.84;5012456;28;20802;-75
2022/04/15 04:29:37;;;;;;;6.30;4.57;;;;;;;8.65;100.00;96435.25;5012970;28;21319;-75
2022/04/15 04:32:06;;;;;;;8.18;4.40;;;;;;;8.63;100.00;96440.47;5012812;28;20840;-75
2022/04/15 04:34:33;;;;;;;6.75;4.38;;;;;;;8.64;100.00;96436.13;5012402;28;25012;-75
2022/04/15 04:36:59;;;;;;;5.20;4.32;;;;;;;8.63;100.00;96447.38;5012634;28;24441;-75
2022/04/15 04:39:28;;;;;;;5.85;4.38;;;;;;;8.61;100.00;96451.78;5012414;28;24436;-75
2022/04/15 04:41:54;;;;;;;8.07;4.38;;;;;;;8.63;100.00;96455.97;5012632;28;20762;-75
2022/04/15 04:44:20;;;;;;;8.45;4.63;;;;;;;8.45;100.00;96455.06;5012513;28;24459;-76
2022/04/15 04:46:47;;;;;;;6.20;4.43;;;;;;;8.41;100.00;96455.22;5012307;28;24539;-75
2022/04/15 04:49:15;;;;;;;5.95;4.10;;;;;;;8.29;100.00;96459.16;5012294;28;20767;-75
2022/04/15 04:51:42;;;;;;;4.95;4.35;;;;;;;8.25;100.00;96463.59;5004410;28;20812;-75
2022/04/15 04:54:09;;;;;;;6.57;4.20;;;;;;;8.31;100.00;96469.41;5012336;28;20782;-75
2022/04/15 04:56:36;;;;;;;6.93;4.03;;;;;;;8.40;100.00;96467.28;5012225;28;21339;-75
2022/04/15 04:59:02;;;;;;;5.00;4.40;;;;;;;8.38;100.00;96474.28;5012069;28;25005;-75
2022/04/15 05:01:28;;;;;;;10.73;4.30;;;;;;;8.34;100.00;96469.25;5011682;28;20782;-75
2022/04/15 05:03:55;;;;;;;5.20;4.22;;;;;;;8.37;100.00;96477.75;5012206;28;24459;-75
2022/04/15 05:06:23;;;;;;;5.53;4.18;;;;;;;8.45;100.00;96480.00;5011900;28;24436;-75
2022/04/15 05:08:50;;;;;;;4.28;3.80;;;;;;;8.52;100.00;96478.84;5011901;28;24444;-76
2022/04/15 05:11:16;;;;;;;4.45;3.92;;;;;;;8.61;100.00;96480.19;5011609;28;20771;-75
2022/04/15 05:13:43;;;;;;;4.55;3.50;;;;;;;8.67;100.00;96478.16;5011636;28;24510;-75
2022/04/15 05:16:09;;;;;;;5.93;3.95;;;;;;;8.73;100.00;96492.56;5011446;28;24440;-75
2022/04/15 05:18:36;;;;;;;5.55;3.60;;;;;;;8.73;100.00;96480.47;5011832;28;25033;-75
2022/04/15 05:21:02;;;;;;;4.15;3.53;;;;;;;8.82;100.00;96479.22;5012060;28;24419;-75
2022/04/15 05:23:30;;;;;;;3.85;3.33;;;;;;;8.92;100.00;96480.50;5011808;28;20771;-75
2022/04/15 05:25:57;;;;;;;6.07;3.92;;;;;;;9.09;100.00;96484.09;5011782;28;20782;-75
2022/04/15 05:28:23;;;;;;;4.07;3.60;;;;;;;9.05;100.00;96490.28;5011622;28;24444;-75
2022/04/15 05:30:49;;;;;;;6.40;3.95;;;;;;;9.03;100.00;96486.94;5011174;28;24440;-75
2022/04/15 05:33:16;;;;;;;4.65;3.25;;;;;;;9.04;100.00;96489.44;5011555;28;24790;-76
2022/04/15 05:35:42;;;;;;;4.25;3.42;;;;;;;9.08;100.00;96488.38;5011404;28;25016;-75
2022/04/15 05:38:09;;;;;;;7.90;3.80;;;;;;;9.11;100.00;96496.00;5011256;28;24985;-75
2022/04/15 05:40:36;;;;;;;3.92;3.38;;;;;;;9.18;100.00;96497.41;5011242;28;24478;-75
2022/04/15 05:43:03;;;;;;;4.40;3.42;;;;;;;9.17;100.00;96497.50;4995568;28;24439;-75
2022/04/15 05:45:29;;;;;;;4.93;3.65;;;;;;;9.21;100.00;96494.69;5011439;28;24838;-75
2022/04/15 05:47:57;;;;;;;4.20;3.80;;;;;;;9.26;100.00;96501.38;5011061;28;25005;-74
2022/04/15 05:50:24;;;;;;;5.25;3.95;;;;;;;9.28;100.00;96508.19;5011448;28;24523;-75
2022/04/15 05:52:51;;;;;;;5.93;3.83;;;;;;;9.35;100.00;96507.00;5010379;28;25057;-75
2022/04/15 05:55:17;;;;;;;7.28;3.75;;;;;;;9.43;100.00;96512.63;5011255;28;24443;-75
2022/04/15 05:57:45;;;;;;;3.33;3.03;;;;;;;9.59;100.00;96506.75;5010827;28;24981;-75
2022/04/15 06:00:12;;;;;;;9.48;4.20;;;;;;;9.88;100.00;96513.13;5010728;28;24993;-75
2022/04/15 06:02:39;;;;;;;5.40;3.97;;;;;;;9.88;100.00;96513.97;5011157;28;24491;-76
2022/04/15 06:05:07;;;;;;;4.38;3.90;;;;;;;9.91;100.00;96512.97;5010927;28;25797;-75
2022/04/15 06:07:33;;;;;;;6.13;4.10;;;;;;;10.10;100.00;96518.94;5010726;28;24464;-75
2022/04/15 06:10:00;;;;;;;5.85;4.03;;;;;;;10.17;100.00;96514.31;5010882;28;25008;-75
2022/04/15 06:12:54;;;;;;;6.65;4.30;;;;;;;10.19;100.00;96515.03;5010520;28;24431;-75
2022/04/15 06:15:21;;;;;;;9.35;4.45;;;;;;;10.39;100.00;96521.88;5008602;28;24420;-75
2022/04/15 06:17:48;;;;;;;5.45;4.10;;;;;;;10.56;100.00;96521.84;5010516;28;24432;-75
2022/04/15 06:20:14;;;;;;;5.32;4.20;;;;;;;10.69;100.00;96518.66;5010907;28;24432;-75
2022/04/15 06:22:42;;;;;;;4.65;4.00;;;;;;;10.84;100.00;96528.22;5010395;28;24439;-75
2022/04/15 06:25:09;;;;;;;4.28;3.88;;;;;;;11.02;100.00;96524.66;5009948;28;24432;-75
2022/04/15 06:27:35;;;;;;;5.60;4.10;;;;;;;11.12;100.00;96523.28;5011055;28;24794;-75
2022/04/15 06:30:02;;;;;;;4.40;3.78;;;;;;;11.24;100.00;96529.56;5010594;28;24487;-75
2022/04/15 06:32:30;;;;;;;5.47;3.95;;;;;;;11.21;100.00;96524.53;5010549;28;24490;-75
2022/04/15 06:34:56;;;;;;;4.90;3.80;;;;;;;11.31;100.00;96523.13;5010572;28;24444;-75
2022/04/15 06:37:23;;;;;;;5.53;4.18;;;;;;;11.44;100.00;96528.47;5010394;28;24491;-75
2022/04/15 06:39:50;;;;;;;6.25;3.78;;;;;;;11.61;100.00;96531.00;5010610;28;24439;-75
2022/04/15 06:42:20;;;;;;;10.00;4.10;;;;;;;11.50;100.00;96522.13;5010442;28;24443;-75
2022/04/15 06:44:47;;;;;;;6.78;4.72;;;;;;;11.41;100.00;96526.03;5010420;28;24487;-75
2022/04/15 06:47:13;;;;;;;6.28;4.32;;;;;;;11.58;100.00;96527.75;5010331;28;24461;-73
2022/04/15 06:49:41;;;;;;;6.80;5.13;;;;;;;11.87;100.00;96531.34;5010223;28;24429;-74
2022/04/15 06:52:08;;;;;;;5.72;4.53;;;;;;;12.08;100.00;96529.28;5010280;28;24432;-75
2022/04/15 06:54:34;;;;;;;6.45;4.97;;;;;;;12.23;100.00;96525.81;5010306;28;24834;-74
2022/04/15 06:57:01;;;;;;;8.07;5.30;;;;;;;12.18;100.00;96527.84;5010353;28;24436;-74
2022/04/15 06:59:27;;;;;;;7.80;5.90;;;;;;;12.00;100.00;96526.31;5010217;28;24526;-74
2022/04/15 07:01:54;;;;;;;8.02;5.93;;;;;;;12.37;100.00;96526.81;5010110;28;24502;-74
2022/04/15 07:04:21;;;;;;;6.53;5.22;;;;;;;12.70;100.00;96530.03;5010328;28;24475;-74
2022/04/15 07:06:49;;;;;;;7.55;5.85;;;;;;;12.71;100.00;96526.50;5010259;28;24449;-74
2022/04/15 07:09:16;;;;;;;6.70;5.47;;;;;;;12.89;100.00;96536.72;5010913;28;24436;-74
2022/04/15 07:11:42;;;;;;;8.13;5.70;;;;;;;13.04;100.00;96534.03;5010015;28;24429;-74
2022/04/15 07:14:08;;;;;;;11.43;6.40;;;;;;;12.87;100.00;96533.38;5010379;28;24834;-74
2022/04/15 07:16:35;;;;;;;10.38;7.57;;;;;;;12.91;100.00;96532.28;5010225;28;24439;-74
2022/04/15 07:19:04;;;;;;;11.50;8.88;;;;;;;13.03;100.00;96534.16;5009882;28;24523;-74
2022/04/15 07:21:30;;;;;;;17.80;9.43;;;;;;;13.48;100.00;96530.50;5010093;28;24531;-74
2022/04/15 07:23:58;;;;;;;9.68;8.68;;;;;;;13.90;100.00;96531.34;5010118;28;24447;-74
2022/04/15 07:26:25;;;;;;;11.88;8.93;;;;;;;14.28;100.00;96538.47;5009881;28;24451;-74
2022/04/15 07:28:51;;;;;;;11.68;9.52;;;;;;;14.46;100.00;96529.44;5008586;28;24459;-76
2022/04/15 07:31:18;;;;;;;12.50;9.05;;;;;;;14.72;100.00;96526.88;5008899;28;24444;-75
2022/04/15 07:33:46;;;;;;;10.00;8.30;;;;;;;14.95;100.00;96531.38;5008147;28;24511;-75
2022/04/15 07:38:53;;;;;;;12.88;9.38;;;;;;;15.23;96.50;96532.91;5019122;28;24452;-75
2022/04/15 07:41:21;;;;;;;14.57;9.48;;;;;;;14.63;100.00;96541.38;5016458;28;24502;-71
2022/04/15 07:43:48;;;;;;;12.38;9.88;;;;;;;14.80;99.44;96532.44;5013175;28;24443;-77
2022/04/15 07:46:14;;;;;;;12.93;11.30;;;;;;;14.88;100.00;96530.13;5012734;28;24444;-74
2022/04/15 07:48:41;;;;;;;14.17;9.93;;;;;;;14.97;100.00;96533.88;5012509;28;24456;-74
2022/04/15 07:51:07;;;;;;;16.52;11.23;;;;;;;14.83;97.96;96533.97;5013206;28;24822;-74
2022/04/15 07:53:34;;;;;;;14.45;11.90;;;;;;;14.75;98.06;96530.09;5013283;28;24486;-74
2022/04/15 07:56:01;;;;;;;13.27;11.40;;;;;;;14.59;97.20;96526.88;5010723;28;24502;-75
2022/04/15 07:58:29;;;;;;;12.88;11.55;;;;;;;14.52;100.00;96538.63;5013005;28;24494;-74
2022/04/15 08:00:59;;;;;;;14.38;11.25;;;;;;;14.65;100.00;96534.28;5012945;28;24901;-74
2022/04/15 08:03:26;;;;;;;15.02;11.60;;;;;;;14.85;98.17;96537.31;5013172;28;24744;-74
2022/04/15 08:05:52;;;;;;;17.55;11.13;;;;;;;14.83;98.75;96536.59;5012939;28;24436;-75
2022/04/15 08:08:19;;;;;;;16.50;13.63;;;;;;;14.27;99.07;96532.41;5013096;28;25013;-75
2022/04/15 08:10:47;;;;;;;17.95;14.00;;;;;;;14.27;97.85;96540.22;5012788;28;24977;-74
2022/04/15 08:13:13;;;;;;;18.85;13.98;;;;;;;14.21;98.27;96534.59;5012820;28;24798;-75
2022/04/15 08:15:41;;;;;;;16.60;13.75;;;;;;;14.38;99.44;96539.50;5012812;28;24463;-75
2022/04/15 08:18:08;;;;;;;16.73;12.80;;;;;;;14.58;98.94;96537.41;5013028;28;24495;-76
2022/04/15 08:20:34;;;;;;;20.40;15.45;;;;;;;14.55;92.74;96541.06;5012941;28;25017;-75
2022/04/15 08:23:00;;;;;;;17.73;15.53;;;;;;;14.65;87.91;96543.91;5012632;28;24668;-75
2022/04/15 08:25:27;;;;;;;20.10;15.13;;;;;;;14.68;86.88;96546.28;5008032;28;25026;-74
2022/04/15 08:27:54;;;;;;;16.10;14.40;;;;;;;14.86;88.36;96547.66;5012282;28;24460;-75
2022/04/15 08:30:20;;;;;;;15.30;13.52;;;;;;;15.05;88.58;96549.00;5012835;28;24440;-75
2022/04/15 08:32:52;;;;;;;16.95;15.02;;;;;;;14.88;89.29;96545.78;5012145;28;24435;-75
2022/04/15 08:35:19;;;;;;;18.27;14.65;;;;;;;14.98;89.46;96541.63;5012627;28;24531;-75
2022/04/15 08:37:45;;;;;;;17.48;15.25;;;;;;;14.95;88.95;96547.03;5012366;28;25010;-75
2022/04/15 08:40:13;;;;;;;16.45;13.50;;;;;;;14.88;87.33;96555.38;5012419;28;24464;-75
2022/04/15 08:42:40;;;;;;;13.50;12.10;;;;;;;15.12;86.06;96555.47;5011913;28;24473;-75
2022/04/15 08:45:08;;;;;;;16.30;13.30;;;;;;;15.21;84.06;96553.09;4997930;28;24865;-75
2022/04/15 08:47:36;;;;;;;18.30;13.93;;;;;;;15.15;86.94;96556.09;5011906;28;24486;-75
2022/04/15 08:50:05;;;;;;;17.80;13.32;;;;;;;15.30;83.67;96556.00;5012547;28;24479;-75
2022/04/15 08:52:32;;;;;;;15.13;11.75;;;;;;;15.52;85.07;96558.78;5012272;28;24868;-76
2022/04/15 08:54:59;;;;;;;15.27;12.93;;;;;;;15.42;84.89;96557.75;5011406;28;24432;-76
2022/04/15 08:57:26;;;;;;;16.25;13.15;;;;;;;15.60;82.41;96561.69;5012468;28;24563;-76
2022/04/15 08:59:53;;;;;;;16.33;13.17;;;;;;;15.27;84.61;96564.84;5011718;28;24447;-76
2022/04/15 09:02:30;;;;;;;15.00;13.07;;;;;;;15.11;83.88;96564.25;5012042;28;24616;-76
2022/04/15 09:04:57;;;;;;;17.67;13.05;;;;;;;15.38;80.96;96566.72;5012393;28;24472;-75
2022/04/15 09:07:28;;;;;;;20.13;12.75;;;;;;;15.39;81.25;96568.44;5011503;28;24850;-76
2022/04/15 09:09:56;;;;;;;12.63;11.30;;;;;;;15.56;82.07;96565.44;5012027;28;24973;-77
2022/04/15 09:12:25;;;;;;;15.32;12.18;;;;;;;15.34;82.13;96560.06;5011457;28;24997;-76
2022/04/15 09:14:52;;;;;;;14.55;12.50;;;;;;;15.02;82.73;96570.94;5011100;28;24804;-76
2022/04/15 09:17:23;;;;;;;18.15;12.45;;;;;;;15.14;83.02;96574.47;5006645;28;24441;-74
2022/04/15 09:19:52;;;;;;;14.32;12.85;;;;;;;15.49;80.68;96569.44;5012067;28;24519;-75
2022/04/15 09:22:19;;;;;;;13.40;11.93;;;;;;;15.70;79.66;96567.97;5011794;28;24475;-75
2022/04/15 09:24:50;;;;;;;17.92;12.02;;;;;;;15.99;77.77;96567.69;5005494;28;24501;-74
2022/04/15 09:27:18;;;;;;;14.07;12.32;;;;;;;15.98;77.30;96568.59;4992156;28;25157;-75
2022/04/15 09:29:44;;;;;;;13.73;10.45;;;;;;;15.82;79.23;96575.88;5008414;28;24471;-74
2022/04/15 09:32:14;;;;;;;12.95;10.07;;;;;;;15.89;76.30;96569.28;5011541;28;24670;-75
2022/04/15 09:34:53;;;;;;;12.38;10.68;;;;;;;16.06;73.58;96579.38;5011515;28;24436;-75
2022/04/15 09:37:20;;;;;;;15.25;10.75;;;;;;;16.39;75.39;96575.25;5011913;28;24436;-75
2022/04/15 09:40:07;;;;;;;12.10;10.45;;;;;;;17.23;81.66;96575.97;5011070;28;24439;-79
2022/04/15 09:42:35;;;;;;;11.80;10.35;;;;;;;17.45;70.33;96575.16;5011760;28;24441;-74
2022/04/15 09:45:12;;;;;;;13.07;10.55;;;;;;;17.38;71.53;96573.00;5011048;28;24451;-74
2022/04/15 09:47:39;;;;;;;11.15;9.73;;;;;;;17.24;69.15;96564.53;5011174;28;24444;-74
2022/04/15 09:50:07;;;;;;;12.63;10.25;;;;;;;16.77;71.56;96569.00;5012385;28;24532;-74
2022/04/15 09:52:35;;;;;;;12.27;9.90;;;;;;;16.91;71.92;96568.78;5011316;28;24443;-74
2022/04/15 09:55:02;;;;;;;14.05;10.35;;;;;;;16.26;71.18;96564.00;5010350;28;24437;-75
2022/04/15 09:57:34;;;;;;;14.77;10.73;;;;;;;16.15;71.14;96560.38;5005816;28;24856;-74
2022/04/15 10:00:03;;;;;;;10.43;9.43;;;;;;;16.15;72.77;96554.34;5008780;28;24873;-75
2022/04/15 10:02:34;;;;;;;14.52;9.55;;;;;;;15.85;71.79;96560.00;5005530;28;24524;-75
2022/04/15 10:05:00;;;;;;;13.18;10.25;;;;;;;15.71;72.46;96560.97;5005964;28;24445;-75
2022/04/15 10:07:27;;;;;;;9.88;8.90;;;;;;;15.73;72.63;96569.53;5010694;28;24885;-75
2022/04/15 10:09:54;;;;;;;11.75;10.48;;;;;;;15.89;71.70;96561.44;5003056;28;24486;-75
2022/04/15 10:12:21;;;;;;;11.88;10.07;;;;;;;16.10;72.37;96554.66;5010724;28;24428;-74
2022/04/15 10:14:52;;;;;;;16.30;10.75;;;;;;;16.84;75.13;96557.13;5011077;28;24436;-74
2022/04/15 10:17:20;;;;;;;11.75;8.43;;;;;;;17.33;71.35;96556.81;5010812;28;24439;-74
2022/04/15 10:19:47;;;;;;;12.38;8.02;;;;;;;16.99;67.00;96566.44;5011226;28;24841;-74
2022/04/15 10:22:15;;;;;;;9.65;8.27;;;;;;;16.75;66.85;96568.25;5010539;28;24475;-75
2022/04/15 10:24:41;;;;;;;10.57;8.60;;;;;;;16.83;67.78;96565.91;5004639;28;24540;-75
2022/04/15 10:27:08;;;;;;;11.25;9.48;;;;;;;16.36;69.50;96558.00;5009819;28;24448;-74
2022/04/15 10:29:34;;;;;;;13.00;9.68;;;;;;;16.53;67.60;96561.13;5007020;28;24865;-74
2022/04/15 10:32:13;;;;;;;9.00;7.95;;;;;;;16.69;72.52;96562.50;5010716;28;24803;-74
2022/04/15 10:34:47;;;;;;;9.25;7.60;;;;;;;16.98;64.97;96561.28;5011417;28;24443;-75
2022/04/15 10:37:15;;;;;;;9.95;7.65;;;;;;;16.56;65.59;96558.31;5010612;28;24451;-75
2022/04/15 10:39:47;;;;;;;10.90;8.97;;;;;;;16.15;69.27;96557.78;5010561;28;25011;-75
2022/04/15 10:42:18;;;;;;;11.35;8.57;;;;;;;16.35;70.08;96561.56;5010246;28;24460;-75
2022/04/15 10:44:45;;;;;;;14.05;8.32;;;;;;;16.39;69.12;96570.03;5010647;28;24491;-75
2022/04/15 10:50:07;;;;;;;8.80;7.77;;;;;;;16.67;68.63;96561.78;5106799;27;20768;-75
2022/04/15 10:52:34;;;;;;;12.43;8.17;;;;;;;16.49;65.30;96565.75;5096772;28;24541;-74
2022/04/15 10:55:03;;;;;;;9.02;7.70;;;;;;;16.38;65.42;96563.94;5095324;28;24741;-74
2022/04/15 10:57:35;;;;;;;11.77;7.72;;;;;;;16.33;69.10;96565.22;5082053;28;24484;-74
2022/04/15 11:02:50;;;;;;;11.10;8.35;;;;;;;16.43;67.27;96567.06;5077343;28;25098;-76
2022/04/15 11:05:35;;;;;;;11.50;7.30;;;;;;;17.12;66.80;96568.94;5077307;28;24443;-76
2022/04/15 11:08:06;;;;;;;10.32;7.60;;;;;;;16.75;65.62;96571.69;5075211;28;24499;-76
2022/04/15 11:10:45;;;;;;;9.38;8.15;;;;;;;16.46;64.85;96565.97;5073915;28;24572;-76
2022/04/15 11:13:30;;;;;;;8.55;7.65;;;;;;;16.61;67.26;96564.88;5072822;28;24976;-76
2022/04/15 11:15:59;;;;;;;12.45;9.85;;;;;;;16.41;67.12;96570.72;5074249;28;24438;-76
2022/04/15 11:18:25;;;;;;;8.25;6.18;;;;;;;16.51;63.03;96563.88;5066162;28;24431;-76
2022/04/15 11:20:54;;;;;;;9.55;6.95;;;;;;;16.65;69.61;96558.47;5076999;28;24449;-76
2022/04/15 11:23:20;;;;;;;11.50;8.68;;;;;;;16.61;69.45;96557.03;5078646;28;24900;-76
2022/04/15 11:25:47;;;;;;;13.55;10.05;;;;;;;16.54;66.19;96550.59;5075773;28;24483;-76
2022/04/15 11:28:13;;;;;;;11.27;8.00;;;;;;;16.92;68.32;96552.97;5077730;28;24466;-76
2022/04/15 11:30:40;;;;;;;11.00;7.22;;;;;;;16.65;64.74;96555.84;5075948;28;24439;-76
2022/04/15 11:33:07;;;;;;;10.50;7.50;;;;;;;16.53;65.53;96546.28;5076770;28;24438;-76
2022/04/15 11:35:35;;;;;;;12.90;7.97;;;;;;;16.66;64.10;96548.84;5075714;28;24442;-76
2022/04/15 11:38:08;;;;;;;12.63;9.35;;;;;;;16.76;69.47;96547.25;5073281;28;24444;-76